Shell Lake, Canada
Current Conditions -  °F | °C
As of 8:00 PM on Friday 24 Oct 2014 (Local Time) from CYPA Reporting Station
Few Clouds Few Clouds  
Wind Chill: 35°   Ceiling: Unl
Heat Index: 43°   Visibility: 15mi
Dew Point: 30°   Wind: 15mph
Humidity: 61%   Direction: 290°WNW
Pressure: 29.82"   Gusts: NA
Location:  53.3°N, 107.05°W
Report Text: CYPA 250200Z 29013KT 15SM FEW250 06/M01 A2982 RMK CI2 SLP115
Loading
Personal Weather Stations






























Interactive Weather Map New forecast layout! Learn more

10-Day Weather Forecast

Advertisements
Track Severe Weather on mobile